Погода Пинхаона неделю

Парана, Бразилия

18 - 24 июля
  • 18июля
    Сегодня
    +12°
    +21°
    Ясно и безоблачно
    ВремяПогодаТемператураВлажностьДавлениеВетер, м/сВероятность осадков
    00:00Ясно и безоблачно+13°C98 %696 мм1.4 м/с3 %
    03:00Облачно с прояснениями+11°C100 %695 мм1.1 м/с5 %
    06:00Пасмурно, сплошная облачность+12°C99 %694 мм1.2 м/с5 %
    09:00Практически безоблачно+15°C94 %696 мм0.8 м/с5 %
    12:00Ясно и безоблачно+20°C59 %697 мм0.9 м/с5 %
    15:00Ясно и безоблачно+21°C50 %696 мм1.3 м/с5 %
    18:00Ясно и безоблачно+18°C69 %695 мм0.6 м/с5 %
    21:00Ясно и безоблачно+13°C77 %695 мм1.7 м/с5 %
  • 19июля
    Пятница
    +10°
    +22°
    Ясно и безоблачно
    ВремяПогодаТемператураВлажностьДавлениеВетер, м/сВероятность осадков
    00:00Ясно и безоблачно+13°C88 %696 мм2.5 м/с5 %
    03:00Ясно и безоблачно+13°C83 %695 мм2.7 м/с5 %
    06:00Ясно и безоблачно+13°C86 %696 мм2.9 м/с5 %
    09:00Ясно и безоблачно+17°C82 %698 мм1.7 м/с5 %
    12:00Ясно и безоблачно+21°C56 %700 мм2.0 м/с5 %
    15:00Ясно и безоблачно+21°C54 %698 мм1.3 м/с5 %
    18:00Ясно и безоблачно+18°C69 %697 мм0.7 м/с5 %
    21:00Ясно и безоблачно+13°C78 %697 мм1.8 м/с5 %
  • 20июля
    Суббота
    +11°
    +23°
    Ясно и безоблачно
    ВремяПогодаТемператураВлажностьДавлениеВетер, м/сВероятность осадков
    00:00Ясно и безоблачно+13°C88 %697 мм2.1 м/с5 %
    03:00Ясно и безоблачно+11°C95 %696 мм2.3 м/с5 %
    06:00Пасмурно, сплошная облачность+13°C99 %696 мм3.0 м/с5 %
    09:00Ясно и безоблачно+16°C90 %697 мм2.7 м/с5 %
    12:00Ясно и безоблачно+22°C61 %698 мм1.7 м/с5 %
    15:00Ясно и безоблачно+22°C49 %696 мм2.0 м/с5 %
    18:00Небольшая облачность+18°C78 %695 мм1.9 м/с5 %
    21:00Практически безоблачно+14°C88 %695 мм2.0 м/с5 %
  • 21июля
    Воскресенье
    +10°
    +22°
    Ясно и безоблачно
    ВремяПогодаТемператураВлажностьДавлениеВетер, м/сВероятность осадков
    00:00Ясно и безоблачно+13°C82 %695 мм2.7 м/с5 %
    03:00Ясно и безоблачно+12°C93 %694 мм2.6 м/с5 %
    06:00Ясно и безоблачно+12°C93 %694 мм2.4 м/с5 %
    09:00Небольшая облачность+16°C79 %696 мм1.9 м/с5 %
    12:00Небольшая облачность+21°C49 %697 мм1.9 м/с5 %
    15:00Ясно и безоблачно+21°C55 %696 мм2.1 м/с5 %
    18:00Ясно и безоблачно+17°C79 %695 мм1.8 м/с5 %
    21:00Ясно и безоблачно+16°C75 %695 мм1.0 м/с5 %
  • 22июля
    Понедельник
    +12°
    +22°
    Ясно и безоблачно
    ВремяПогодаТемператураВлажностьДавлениеВетер, м/сВероятность осадков
    00:00Ясно и безоблачно+14°C84 %695 мм1.7 м/с5 %
    03:00Ясно и безоблачно+12°C90 %695 мм1.6 м/с5 %
    06:00Ясно и безоблачно+11°C93 %695 мм2.2 м/с5 %
    09:00Ясно и безоблачно+17°C81 %697 мм1.9 м/с5 %
    12:00Ясно и безоблачно+21°C50 %698 мм1.0 м/с5 %
    15:00Ясно и безоблачно+22°C49 %697 мм1.4 м/с5 %
    18:00Ясно и безоблачно+19°C75 %697 мм0.8 м/с5 %
    21:00Ясно и безоблачно+14°C84 %696 мм2.4 м/с5 %
Мы используем cookies
Соглашаюсь